In Rescue
 
Open Full Screen Window  High Contrast Mode
Wind Gusting 00 knots
03
May 13, 2021 12:16 PM EDT
Weather Information
Wind Direction
  290 °
Wind Speed
  03 kt (3 mph)
Wind Gust
  00 kt (0 mph)
Altimeter
30.36 in
Visibility
10 SM
Temperature
18° C
64° F
Dewpoint
-06° C
21° F
Humidity
19%
Sky Condition
Clear
VFR

METAR KCAD 131616Z AUTO 29003KT 10SM CLR 18/M06 A3036 RMK AO2 T01751059

FAA Disclaimer: The data displayed is for advisory purposes only and is not to be used for flight planning or operations.